createdAt,value
2023-03-12T00:00:11.340Z,97768.81
2023-03-12T00:03:14.645Z,97768.06
2023-03-12T00:06:20.301Z,97781.47
2023-03-12T00:09:23.516Z,97773.84
2023-03-12T00:12:26.775Z,97775.47
2023-03-12T00:15:33.016Z,97780.59
2023-03-12T00:18:36.139Z,97784.78
2023-03-12T00:21:40.902Z,97780.53
2023-03-12T00:24:44.133Z,97776.50
2023-03-12T00:27:47.249Z,97777.19
2023-03-12T00:30:52.061Z,97782.22
2023-03-12T00:33:55.502Z,97789.03
2023-03-12T00:37:00.093Z,97793.16
2023-03-12T00:40:06.052Z,97787.28
2023-03-12T00:43:09.341Z,97791.56
2023-03-12T00:46:12.567Z,97787.44
2023-03-12T00:49:15.692Z,97792.56
2023-03-12T00:52:20.513Z,97794.22
2023-03-12T00:55:23.704Z,97778.22
2023-03-12T00:58:26.819Z,97778.16
2023-03-12T01:01:29.973Z,97778.19
2023-03-12T01:04:33.166Z,97781.38
2023-03-12T01:07:37.839Z,97782.19
2023-03-12T01:10:43.302Z,97772.84
2023-03-12T01:13:47.314Z,97783.03
2023-03-12T01:16:52.575Z,97783.84
2023-03-12T01:19:56.823Z,97779.69
2023-03-12T01:23:01.336Z,97785.84
2023-03-12T01:26:04.667Z,97774.81
2023-03-12T01:29:07.802Z,97781.38
2023-03-12T01:32:11.291Z,97786.50
2023-03-12T01:35:14.623Z,97784.72
2023-03-12T01:38:20.775Z,97779.59
2023-03-12T01:41:25.720Z,97782.41
2023-03-12T01:44:29.532Z,97783.22
2023-03-12T01:47:32.984Z,97782.38
2023-03-12T01:50:39.738Z,97777.34
2023-03-12T01:53:48.123Z,97772.25
2023-03-12T01:56:55.067Z,97773.94
2023-03-12T02:00:02.147Z,97768.03
2023-03-12T02:03:08.826Z,97763.78
2023-03-12T02:06:15.536Z,97760.44
2023-03-12T02:09:22.063Z,97768.06
2023-03-12T02:12:26.733Z,97770.44
2023-03-12T02:15:30.186Z,97778.16
2023-03-12T02:18:35.893Z,97769.72
2023-03-12T02:21:40.430Z,97776.47
2023-03-12T02:24:49.662Z,97774.75
2023-03-12T02:27:54.196Z,97771.41
2023-03-12T02:31:01.688Z,97759.53
2023-03-12T02:34:05.392Z,97766.34
2023-03-12T02:37:08.891Z,97767.16
2023-03-12T02:40:19.180Z,97767.19
2023-03-12T02:43:24.709Z,97770.53
2023-03-12T02:46:30.116Z,97697.00
2023-03-12T02:49:35.010Z,97773.97
2023-03-12T02:52:38.261Z,97792.59
2023-03-12T02:55:41.397Z,97795.94
2023-03-12T02:58:45.902Z,97787.47
2023-03-12T03:01:53.797Z,97787.50
2023-03-12T03:04:57.079Z,97787.53
2023-03-12T03:08:00.649Z,97790.00
2023-03-12T03:11:04.497Z,97793.38
2023-03-12T03:14:10.421Z,97791.69
2023-03-12T03:17:13.991Z,97781.53
2023-03-12T03:20:17.197Z,97790.84
2023-03-12T03:23:20.282Z,97795.06
2023-03-12T03:26:24.624Z,97790.84
2023-03-12T03:29:29.917Z,97800.13
2023-03-12T03:32:33.721Z,97795.94
2023-03-12T03:35:37.073Z,97797.63
2023-03-12T03:38:40.213Z,97797.63
2023-03-12T03:41:43.643Z,97801.06
2023-03-12T03:44:48.223Z,97794.28
2023-03-12T03:47:52.339Z,97807.81
2023-03-12T03:50:55.527Z,97811.16
2023-03-12T03:54:00.319Z,97792.56
2023-03-12T03:57:03.764Z,97806.97
2023-03-12T04:00:13.107Z,97816.22
2023-03-12T04:03:20.405Z,97802.72
2023-03-12T04:06:29.600Z,97803.56
2023-03-12T04:09:32.813Z,97794.25
2023-03-12T04:12:36.006Z,97793.41
2023-03-12T04:15:47.637Z,97778.19
2023-03-12T04:18:50.934Z,97792.56
2023-03-12T04:21:54.213Z,97788.34
2023-03-12T04:24:57.710Z,97780.75
2023-03-12T04:28:01.261Z,97784.13
2023-03-12T04:34:20.401Z,97794.28
2023-03-12T04:37:26.065Z,97792.59
2023-03-12T04:40:29.685Z,97795.94
2023-03-12T04:43:33.459Z,97787.53
2023-03-12T04:46:37.415Z,97788.38
2023-03-12T04:49:42.326Z,97784.13
2023-03-12T04:52:45.679Z,97775.69
2023-03-12T04:55:49.055Z,97780.69
2023-03-12T04:58:53.937Z,97784.97
2023-03-12T05:01:57.512Z,97781.59
2023-03-12T05:05:06.904Z,97785.81
2023-03-12T05:08:11.294Z,97790.06
2023-03-12T05:11:15.252Z,97800.19
2023-03-12T05:14:18.581Z,97784.97
2023-03-12T05:17:23.634Z,97786.66
2023-03-12T05:20:28.303Z,97791.72
2023-03-12T05:23:32.562Z,97787.50
2023-03-12T05:26:36.506Z,97783.28
2023-03-12T05:29:47.537Z,97782.44
2023-03-12T05:32:51.316Z,97786.66
2023-03-12T05:35:56.533Z,97784.97
2023-03-12T05:38:59.993Z,97777.38
2023-03-12T05:42:06.806Z,97778.19
2023-03-12T05:45:11.919Z,97759.59
2023-03-12T05:48:18.984Z,97782.44
2023-03-12T05:51:23.423Z,97784.13
2023-03-12T05:54:26.866Z,97778.22
2023-03-12T05:57:30.788Z,97785.84
2023-03-12T06:00:37.968Z,97779.91
2023-03-12T06:03:43.260Z,97784.97
2023-03-12T06:06:48.057Z,97793.44
2023-03-12T06:09:51.897Z,97785.81
2023-03-12T06:12:55.683Z,97785.78
2023-03-12T06:16:03.142Z,97787.50
2023-03-12T06:19:06.645Z,97779.84
2023-03-12T06:22:11.533Z,97788.28
2023-03-12T06:25:14.791Z,97784.88
2023-03-12T06:28:17.974Z,97792.53
2023-03-12T06:31:22.278Z,97793.38
2023-03-12T06:34:25.452Z,97799.28
2023-03-12T06:37:29.986Z,97791.66
2023-03-12T06:40:33.150Z,97794.97
2023-03-12T06:43:37.835Z,97795.03
2023-03-12T06:46:42.741Z,97800.91
2023-03-12T06:49:46.173Z,97799.94
2023-03-12T06:52:51.001Z,97799.06
2023-03-12T06:55:54.202Z,97803.31
2023-03-12T06:58:57.681Z,97799.09
2023-03-12T07:02:01.126Z,97803.09
2023-03-12T07:05:04.809Z,97793.56
2023-03-12T07:08:09.312Z,97790.41
2023-03-12T07:11:13.531Z,97775.94
2023-03-12T07:14:16.713Z,97783.44
2023-03-12T07:17:19.868Z,97774.91
2023-03-12T07:20:23.153Z,97788.47
2023-03-12T07:23:27.804Z,97770.47
2023-03-12T07:26:30.933Z,97757.72
2023-03-12T07:29:34.103Z,97719.59
2023-03-12T07:32:37.653Z,97753.19
2023-03-12T07:35:41.091Z,97735.41
2023-03-12T07:38:45.775Z,97739.44
2023-03-12T07:41:49.381Z,97736.06
2023-03-12T07:44:52.885Z,97738.53
2023-03-12T07:47:56.130Z,97751.06
2023-03-12T07:50:59.472Z,97734.16
2023-03-12T07:54:03.959Z,97733.22
2023-03-12T07:57:07.480Z,97735.75
2023-03-12T08:00:12.544Z,97743.53
2023-03-12T08:03:16.896Z,97738.22
2023-03-12T08:06:21.061Z,97744.09
2023-03-12T08:09:25.557Z,97737.06
2023-03-12T08:12:28.976Z,97737.94
2023-03-12T08:15:33.246Z,97739.31
2023-03-12T08:18:36.701Z,97714.56
2023-03-12T08:21:39.909Z,97738.59
2023-03-12T08:24:44.802Z,97728.53
2023-03-12T08:27:47.965Z,97739.59
2023-03-12T08:30:53.412Z,97747.38
2023-03-12T08:33:56.798Z,97743.97
2023-03-12T08:37:00.082Z,97752.25
2023-03-12T08:40:13.033Z,97743.50
2023-03-12T08:43:16.363Z,97746.94
2023-03-12T08:46:19.975Z,97743.59
2023-03-12T08:49:24.072Z,97740.97
2023-03-12T08:52:27.213Z,97740.34
2023-03-12T08:55:31.724Z,97734.59
2023-03-12T08:58:34.892Z,97731.69
2023-03-12T09:01:38.423Z,97740.22
2023-03-12T09:04:41.781Z,97734.38
2023-03-12T09:07:45.181Z,97729.09
2023-03-12T09:10:50.663Z,97732.38
2023-03-12T09:14:26.580Z,97733.44
2023-03-12T09:17:17.055Z,97730.81
2023-03-12T09:20:20.567Z,97730.38
2023-03-12T09:23:24.091Z,97717.38
2023-03-12T09:26:28.892Z,97703.91
2023-03-12T09:29:32.096Z,97698.91
2023-03-12T09:32:35.466Z,97703.00
2023-03-12T09:35:38.923Z,97708.56
2023-03-12T09:38:42.244Z,97711.19
2023-03-12T09:41:48.371Z,97712.53
2023-03-12T09:44:54.781Z,97712.81
2023-03-12T09:48:01.295Z,97720.31
2023-03-12T09:51:09.770Z,97716.66
2023-03-12T09:54:22.672Z,97718.84
2023-03-12T09:57:29.802Z,97718.75
2023-03-12T10:00:37.012Z,97721.66
2023-03-12T10:03:54.878Z,97719.25
2023-03-12T10:07:05.262Z,97713.88
2023-03-12T10:10:21.617Z,97705.53
2023-03-12T10:13:44.622Z,97701.63
2023-03-12T10:17:00.921Z,97702.66
2023-03-12T10:20:29.911Z,97696.81
2023-03-12T10:23:45.953Z,97704.44
2023-03-12T10:26:51.804Z,97705.34
2023-03-12T10:29:57.738Z,97698.50
2023-03-12T10:34:24.792Z,97694.59
2023-03-12T10:37:31.687Z,97693.91
2023-03-12T10:40:39.017Z,97673.59
2023-03-12T10:43:42.513Z,97693.53
2023-03-12T10:46:59.515Z,97701.34
2023-03-12T10:50:19.995Z,97692.22
2023-03-12T10:53:29.811Z,97708.06
2023-03-12T10:56:49.773Z,97703.06
2023-03-12T10:59:53.250Z,97700.50
2023-03-12T11:02:59.923Z,97703.66
2023-03-12T11:06:08.134Z,97702.31
2023-03-12T11:09:19.074Z,97707.47
2023-03-12T11:12:29.638Z,97681.72
2023-03-12T11:15:40.880Z,97711.06
2023-03-12T11:18:56.341Z,97703.31
2023-03-12T11:22:03.262Z,97699.72
2023-03-12T11:25:08.473Z,97710.16
2023-03-12T11:28:21.856Z,97709.38
2023-03-12T11:31:30.350Z,97710.88
2023-03-12T11:34:35.998Z,97702.41
2023-03-12T11:37:51.091Z,97705.91
2023-03-12T11:41:04.788Z,97706.75
2023-03-12T11:44:23.034Z,97693.91
2023-03-12T11:47:46.486Z,97706.59
2023-03-12T11:51:02.637Z,97713.66
2023-03-12T11:54:36.794Z,97713.47
2023-03-12T11:57:53.487Z,97714.69
2023-03-12T12:01:05.114Z,97705.97
2023-03-12T12:04:32.606Z,97694.66
2023-03-12T12:07:46.752Z,97693.66
2023-03-12T12:11:00.966Z,97689.63
2023-03-12T12:14:16.695Z,97697.53
2023-03-12T12:17:30.334Z,97698.28
2023-03-12T12:20:44.416Z,97696.81
2023-03-12T12:23:59.812Z,97698.22
2023-03-12T12:27:16.166Z,97702.41
2023-03-12T12:30:28.962Z,97695.91
2023-03-12T12:33:45.769Z,97701.31
2023-03-12T12:36:53.004Z,97694.66
2023-03-12T12:40:08.275Z,97696.38
2023-03-12T12:43:29.544Z,97695.41
2023-03-12T12:46:36.884Z,97693.28
2023-03-12T12:49:44.731Z,97690.72
2023-03-12T12:52:55.131Z,97686.16
2023-03-12T12:56:06.898Z,97687.94
2023-03-12T12:59:27.042Z,97683.38
2023-03-12T13:02:33.974Z,97692.13
2023-03-12T13:05:50.219Z,97671.66
2023-03-12T13:09:15.902Z,97693.84
2023-03-12T13:12:28.272Z,97688.59
2023-03-12T13:15:40.611Z,97691.13
2023-03-12T13:18:57.854Z,97686.69
2023-03-12T13:22:16.320Z,97684.88
2023-03-12T13:25:30.033Z,97679.63
2023-03-12T13:28:42.060Z,97669.66
2023-03-12T13:31:48.117Z,97677.00
2023-03-12T13:34:51.792Z,97604.00
2023-03-12T13:38:06.745Z,97680.47
2023-03-12T13:41:10.004Z,97684.09
2023-03-12T13:44:33.043Z,97685.09
2023-03-12T13:47:44.937Z,97697.50
2023-03-12T13:50:53.321Z,97623.13
2023-03-12T13:54:00.277Z,97702.44
2023-03-12T13:57:11.326Z,97698.59
2023-03-12T14:00:20.807Z,97702.66
2023-03-12T14:03:30.275Z,97700.53
2023-03-12T14:06:49.426Z,97700.28
2023-03-12T14:10:08.715Z,97708.59
2023-03-12T14:13:24.418Z,97714.28
2023-03-12T14:16:35.639Z,97697.72
2023-03-12T14:19:41.722Z,97698.31
2023-03-12T14:22:46.898Z,97705.94
2023-03-12T14:25:52.257Z,97688.56
2023-03-12T14:29:01.511Z,97694.75
2023-03-12T14:32:07.791Z,97693.94
2023-03-12T14:35:21.699Z,97690.19
2023-03-12T14:38:31.123Z,97686.66
2023-03-12T14:41:40.812Z,97669.97
2023-03-12T14:44:55.173Z,97673.03
2023-03-12T14:47:59.427Z,97670.81
2023-03-12T14:51:06.148Z,97675.13
2023-03-12T14:54:19.480Z,97671.63
2023-03-12T14:57:24.601Z,97669.06
2023-03-12T15:00:29.867Z,97665.50
2023-03-12T15:03:37.669Z,97680.88
2023-03-12T15:06:45.204Z,97670.56
2023-03-12T15:09:51.617Z,97681.88
2023-03-12T15:12:57.289Z,97680.69
2023-03-12T15:16:00.837Z,97682.66
2023-03-12T15:19:05.372Z,97685.16
2023-03-12T15:22:14.614Z,97685.63
2023-03-12T15:25:25.850Z,97680.03
2023-03-12T15:28:29.903Z,97668.31
2023-03-12T15:31:42.723Z,97667.28
2023-03-12T15:34:46.172Z,97658.38
2023-03-12T15:37:53.558Z,97654.00
2023-03-12T15:41:00.537Z,97642.16
2023-03-12T15:44:04.040Z,97648.91
2023-03-12T15:47:12.581Z,97626.34
2023-03-12T15:50:22.813Z,97620.34
2023-03-12T15:53:30.970Z,97625.09
2023-03-12T15:56:36.556Z,97623.94
2023-03-12T15:59:39.806Z,97626.25
2023-03-12T16:02:50.121Z,97553.44
2023-03-12T16:05:53.720Z,97626.78
2023-03-12T16:09:00.514Z,97610.84
2023-03-12T16:12:03.812Z,97633.84
2023-03-12T16:15:07.814Z,97639.56
2023-03-12T16:18:14.549Z,97648.97
2023-03-12T16:21:17.778Z,97657.16
2023-03-12T16:24:22.287Z,97655.13
2023-03-12T16:27:32.483Z,97661.03
2023-03-12T16:34:19.961Z,97674.78
2023-03-12T16:37:23.103Z,97679.16
2023-03-12T16:40:33.226Z,97668.63
2023-03-12T16:43:38.006Z,97674.91
2023-03-12T16:46:41.247Z,97665.28
2023-03-12T16:49:45.845Z,97667.41
2023-03-12T16:52:51.098Z,97649.59
2023-03-12T16:55:57.587Z,97662.00
2023-03-12T16:59:06.427Z,97665.28
2023-03-12T17:02:16.199Z,97593.09
2023-03-12T17:05:20.923Z,97664.63
2023-03-12T17:08:24.533Z,97664.59
2023-03-12T17:11:32.741Z,97667.28
2023-03-12T17:14:35.792Z,97670.66
2023-03-12T17:17:38.717Z,97678.75
2023-03-12T17:20:43.684Z,97682.91
2023-03-12T17:23:50.210Z,97681.53
2023-03-12T17:26:53.684Z,97670.38
2023-03-12T17:29:56.835Z,97665.50
2023-03-12T17:33:03.447Z,97658.31
2023-03-12T17:36:10.218Z,97671.97
2023-03-12T17:39:13.346Z,97685.47
2023-03-12T17:42:16.567Z,97684.66
2023-03-12T17:45:21.447Z,97688.50
2023-03-12T17:48:28.477Z,97693.50
2023-03-12T17:51:33.070Z,97696.75
2023-03-12T17:54:36.266Z,97695.38
2023-03-12T17:57:39.893Z,97704.28
2023-03-12T18:00:43.122Z,97697.44
2023-03-12T18:03:46.329Z,97700.03
2023-03-12T18:06:50.892Z,97704.47
2023-03-12T18:09:54.505Z,97703.63
2023-03-12T18:12:57.646Z,97710.53
2023-03-12T18:16:01.109Z,97709.69
2023-03-12T18:19:04.444Z,97696.81
2023-03-12T18:22:12.065Z,97715.50
2023-03-12T18:25:15.355Z,97708.84
2023-03-12T18:28:19.436Z,97715.75
2023-03-12T18:31:22.967Z,97674.03
2023-03-12T18:34:26.259Z,97733.91
2023-03-12T18:37:31.984Z,97733.69
2023-03-12T18:40:35.181Z,97730.44
2023-03-12T18:43:38.282Z,97732.34
2023-03-12T18:46:41.720Z,97729.09
2023-03-12T18:49:45.156Z,97727.38
2023-03-12T18:52:49.650Z,97730.84
2023-03-12T18:55:54.018Z,97738.41
2023-03-12T18:58:57.158Z,97734.25
2023-03-12T19:02:01.346Z,97731.53
2023-03-12T19:05:05.044Z,97724.25
2023-03-12T19:08:09.862Z,97713.81
2023-03-12T19:11:15.503Z,97718.41
2023-03-12T19:14:18.905Z,97720.50
2023-03-12T19:17:22.624Z,97716.88
2023-03-12T19:20:26.076Z,97728.66
2023-03-12T19:23:30.937Z,97728.50
2023-03-12T19:26:34.142Z,97720.59
2023-03-12T19:29:37.298Z,97721.69
2023-03-12T19:32:44.046Z,97732.34
2023-03-12T19:35:47.866Z,97732.22
2023-03-12T19:38:52.342Z,97741.63
2023-03-12T19:41:55.691Z,97741.00
2023-03-12T19:44:58.898Z,97737.66
2023-03-12T19:48:03.085Z,97742.66
2023-03-12T19:51:07.446Z,97738.41
2023-03-12T19:54:11.945Z,97732.50
2023-03-12T19:57:15.123Z,97737.88
2023-03-12T20:00:18.946Z,97742.31
2023-03-12T20:03:23.036Z,97747.28
2023-03-12T20:06:26.939Z,97745.59
2023-03-12T20:09:32.004Z,97749.25
2023-03-12T20:12:35.168Z,97749.03
2023-03-12T20:15:39.520Z,97743.88
2023-03-12T20:18:42.840Z,97749.91
2023-03-12T20:21:48.113Z,97762.81
2023-03-12T20:24:52.623Z,97758.00
2023-03-12T20:27:56.043Z,97756.41
2023-03-12T20:31:08.022Z,97748.53
2023-03-12T20:34:11.225Z,97751.03
2023-03-12T20:37:14.433Z,97765.31
2023-03-12T20:40:19.386Z,97756.53
2023-03-12T20:43:22.588Z,97755.97
2023-03-12T20:46:25.925Z,97749.00
2023-03-12T20:49:29.336Z,97740.25
2023-03-12T20:52:32.520Z,97753.53
2023-03-12T20:55:38.657Z,97765.81
2023-03-12T20:58:41.781Z,97772.63
2023-03-12T21:01:45.112Z,97768.31
2023-03-12T21:04:49.385Z,97767.06
2023-03-12T21:07:58.062Z,97766.50
2023-03-12T21:11:05.834Z,97772.50
2023-03-12T21:14:09.013Z,97763.88
2023-03-12T21:17:13.673Z,97770.13
2023-03-12T21:20:18.675Z,97767.97
2023-03-12T21:23:22.153Z,97759.06
2023-03-12T21:26:26.676Z,97766.97
2023-03-12T21:29:29.864Z,97765.31
2023-03-12T21:32:33.255Z,97770.63
2023-03-12T21:35:36.557Z,97757.38
2023-03-12T21:38:42.589Z,97759.06
2023-03-12T21:41:47.171Z,97759.78
2023-03-12T21:44:50.370Z,97757.03
2023-03-12T21:47:53.909Z,97760.63
2023-03-12T21:50:57.054Z,97755.47
2023-03-12T21:54:00.958Z,97758.09
2023-03-12T21:57:06.435Z,97688.19
2023-03-12T22:00:13.867Z,97744.31
2023-03-12T22:03:16.965Z,97737.50
2023-03-12T22:06:20.834Z,97737.72
2023-03-12T22:09:24.124Z,97738.50
2023-03-12T22:12:28.575Z,97743.91
2023-03-12T22:15:31.914Z,97742.66
2023-03-12T22:18:38.286Z,97738.78
2023-03-12T22:21:42.794Z,97727.09
2023-03-12T22:24:46.292Z,97725.41
2023-03-12T22:27:50.764Z,97714.25
2023-03-12T22:34:20.081Z,97719.28
2023-03-12T22:37:23.241Z,97718.78
2023-03-12T22:40:27.114Z,97711.75
2023-03-12T22:43:30.293Z,97716.50
2023-03-12T22:46:34.297Z,97694.06
2023-03-12T22:49:39.347Z,97719.13
2023-03-12T22:52:42.540Z,97707.00
2023-03-12T22:55:45.690Z,97703.56
2023-03-12T22:58:49.509Z,97696.84
2023-03-12T23:01:52.717Z,97691.56
2023-03-12T23:04:57.308Z,97680.91
2023-03-12T23:08:00.676Z,97679.56
2023-03-12T23:11:05.857Z,97678.91
2023-03-12T23:14:09.353Z,97667.69
2023-03-12T23:17:12.654Z,97650.38
2023-03-12T23:20:17.368Z,97671.94
2023-03-12T23:23:20.496Z,97669.53
2023-03-12T23:26:26.481Z,97667.75
2023-03-12T23:29:30.604Z,97667.50
2023-03-12T23:32:35.445Z,97657.19
2023-03-12T23:35:39.939Z,97655.50
2023-03-12T23:38:44.104Z,97646.94
2023-03-12T23:41:47.464Z,97642.13
2023-03-12T23:44:50.657Z,97635.09
2023-03-12T23:47:53.863Z,97644.22
2023-03-12T23:51:06.739Z,97638.66
2023-03-12T23:54:09.982Z,97637.75
2023-03-12T23:57:13.131Z,97639.56
